フェアバンクス の空港の天気 - METARとTAF

フェアバンクス国際空港 ( PAFA / FAI ) - アメリカ アラスカ州フェアバンクス
飛行場実況気象(Metar)
観測時間11/26 23:53 AKST (11/27 08:53 UTC)
風向・風速静穏 0m/s
視程2400m
天気現象弱い雪 もや
全天の4割程度の雲 雲底高度 460m
全天の8割程度の雲 雲底高度 760m
全天を覆う雲 雲底高度 1010m
気温-11.1℃
湿度84%
気圧1028.9hPa
METARPAFA 270853Z 00000KT 1 1/2SM -SN BR SCT015 BKN025 OVC033 M11/M13 A3035 RMK AO2 SLP289 P0001 60001 T11111133 410781156 51016 $
過去の天気等 Google飛行場航空写真 Wunderground天気予報

過去48時間のMETAR

飛行場予報(TAF)
発表時間: 11/26 20:20 AKST (11/27 05:20 UTC)
予報対象時間: 26日21時 AKST ~ 28日3時 AKST
風向・風速静穏
視程4830m
天気現象弱い雪 もや
全天の8割程度の雲 雲底高度 910m
全天を覆う雲 雲底高度 1220m
27日0時 AKST から
風向・風速不定 2m/s
視程6440m
天気現象弱い雪 もや
全天の8割程度の雲 雲底高度 760m
全天を覆う雲 雲底高度 1520m
27日15時 AKST から
風向・風速不定 2m/s
視程10km以上
天気現象弱い雪 もや
全天の8割程度の雲 雲底高度 1070m
全天を覆う雲 雲底高度 1520m
27日18時 AKST から
風向・風速不定 2m/s
視程10km以上
天気現象周辺でしゅう雨
全天の4割程度の雲 雲底高度 1070m
全天を覆う雲 雲底高度 1520m
PAFA 270520Z 2706/2812 00000KT 3SM -SN BR BKN030 OVC040
FM270900 VRB03KT 4SM -SN BR BKN025 OVC050
FM280000 VRB03KT 6SM -SN BR BKN035 OVC050
FM280300 VRB03KT P6SM VCSH SCT035 OVC050